sensor_id;sensor_type;location;lat;lon;timestamp;temperature;humidity
65972;SHT31;52726;48.852;9.152;2023-06-22T00:00:52;20.11;84.27
65972;SHT31;52726;48.852;9.152;2023-06-22T00:03:19;20.13;84.88
65972;SHT31;52726;48.852;9.152;2023-06-22T00:05:48;20.10;85.02
65972;SHT31;52726;48.852;9.152;2023-06-22T00:08:14;20.16;84.68
65972;SHT31;52726;48.852;9.152;2023-06-22T00:10:39;20.21;84.46
65972;SHT31;52726;48.852;9.152;2023-06-22T00:13:05;20.21;84.36
65972;SHT31;52726;48.852;9.152;2023-06-22T00:15:35;20.22;84.16
65972;SHT31;52726;48.852;9.152;2023-06-22T00:18:01;20.21;84.11
65972;SHT31;52726;48.852;9.152;2023-06-22T00:20:27;20.17;84.48
65972;SHT31;52726;48.852;9.152;2023-06-22T00:22:54;20.16;84.35
65972;SHT31;52726;48.852;9.152;2023-06-22T00:25:19;20.13;84.09
65972;SHT31;52726;48.852;9.152;2023-06-22T00:27:44;20.10;84.88
65972;SHT31;52726;48.852;9.152;2023-06-22T00:30:10;20.10;84.67
65972;SHT31;52726;48.852;9.152;2023-06-22T00:32:36;20.07;84.47
65972;SHT31;52726;48.852;9.152;2023-06-22T00:35:01;20.08;84.31
65972;SHT31;52726;48.852;9.152;2023-06-22T00:37:26;20.08;84.70
65972;SHT31;52726;48.852;9.152;2023-06-22T00:39:55;20.06;84.77
65972;SHT31;52726;48.852;9.152;2023-06-22T00:42:20;20.07;84.29
65972;SHT31;52726;48.852;9.152;2023-06-22T00:44:46;20.07;84.37
65972;SHT31;52726;48.852;9.152;2023-06-22T00:47:13;20.07;84.51
65972;SHT31;52726;48.852;9.152;2023-06-22T00:49:39;20.07;84.51
65972;SHT31;52726;48.852;9.152;2023-06-22T00:52:05;20.03;84.84
65972;SHT31;52726;48.852;9.152;2023-06-22T00:54:35;20.01;85.55
65972;SHT31;52726;48.852;9.152;2023-06-22T00:57:01;19.90;85.66
65972;SHT31;52726;48.852;9.152;2023-06-22T00:59:27;19.89;85.71
65972;SHT31;52726;48.852;9.152;2023-06-22T01:01:52;19.87;85.60
65972;SHT31;52726;48.852;9.152;2023-06-22T01:04:18;19.90;85.79
65972;SHT31;52726;48.852;9.152;2023-06-22T01:06:55;19.90;85.98
65972;SHT31;52726;48.852;9.152;2023-06-22T01:09:31;19.86;85.79
65972;SHT31;52726;48.852;9.152;2023-06-22T01:12:01;19.83;85.75
65972;SHT31;52726;48.852;9.152;2023-06-22T01:14:35;19.77;86.14
65972;SHT31;52726;48.852;9.152;2023-06-22T01:17:05;19.66;86.37
65972;SHT31;52726;48.852;9.152;2023-06-22T01:19:51;19.61;86.20
65972;SHT31;52726;48.852;9.152;2023-06-22T01:22:33;19.56;86.49
65972;SHT31;52726;48.852;9.152;2023-06-22T01:30:21;19.45;86.93
65972;SHT31;52726;48.852;9.152;2023-06-22T01:32:48;19.34;87.62
65972;SHT31;52726;48.852;9.152;2023-06-22T01:35:15;19.26;87.60
65972;SHT31;52726;48.852;9.152;2023-06-22T01:37:40;19.21;87.71
65972;SHT31;52726;48.852;9.152;2023-06-22T01:40:07;19.18;88.00
65972;SHT31;52726;48.852;9.152;2023-06-22T01:42:33;19.15;88.34
65972;SHT31;52726;48.852;9.152;2023-06-22T01:44:59;19.10;88.47
65972;SHT31;52726;48.852;9.152;2023-06-22T01:47:26;19.07;88.57
65972;SHT31;52726;48.852;9.152;2023-06-22T01:49:52;19.07;88.01
65972;SHT31;52726;48.852;9.152;2023-06-22T01:52:19;19.10;87.85
65972;SHT31;52726;48.852;9.152;2023-06-22T01:54:46;19.07;89.06
65972;SHT31;52726;48.852;9.152;2023-06-22T01:57:11;19.07;88.68
65972;SHT31;52726;48.852;9.152;2023-06-22T01:59:41;19.05;88.18
65972;SHT31;52726;48.852;9.152;2023-06-22T02:02:11;19.01;88.79
65972;SHT31;52726;48.852;9.152;2023-06-22T02:04:46;18.95;88.90
65972;SHT31;52726;48.852;9.152;2023-06-22T02:07:14;18.93;88.96
65972;SHT31;52726;48.852;9.152;2023-06-22T02:09:44;18.87;89.46
65972;SHT31;52726;48.852;9.152;2023-06-22T02:12:12;18.83;89.50
65972;SHT31;52726;48.852;9.152;2023-06-22T02:14:39;18.80;89.16
65972;SHT31;52726;48.852;9.152;2023-06-22T02:17:04;18.76;89.19
65972;SHT31;52726;48.852;9.152;2023-06-22T02:19:36;18.73;89.88
65972;SHT31;52726;48.852;9.152;2023-06-22T02:22:01;18.64;89.94
65972;SHT31;52726;48.852;9.152;2023-06-22T02:24:27;18.61;89.82
65972;SHT31;52726;48.852;9.152;2023-06-22T02:26:57;18.59;89.50
65972;SHT31;52726;48.852;9.152;2023-06-22T02:29:22;18.57;89.93
65972;SHT31;52726;48.852;9.152;2023-06-22T02:31:48;18.55;90.35
65972;SHT31;52726;48.852;9.152;2023-06-22T02:34:13;18.49;90.14
65972;SHT31;52726;48.852;9.152;2023-06-22T02:36:44;18.52;89.88
65972;SHT31;52726;48.852;9.152;2023-06-22T02:39:22;18.50;89.47
65972;SHT31;52726;48.852;9.152;2023-06-22T02:41:52;18.49;89.66
65972;SHT31;52726;48.852;9.152;2023-06-22T02:44:17;18.52;89.69
65972;SHT31;52726;48.852;9.152;2023-06-22T02:46:43;18.55;89.56
65972;SHT31;52726;48.852;9.152;2023-06-22T02:49:09;18.64;90.00
65972;SHT31;52726;48.852;9.152;2023-06-22T02:51:35;18.63;90.06
65972;SHT31;52726;48.852;9.152;2023-06-22T02:54:00;18.57;90.11
65972;SHT31;52726;48.852;9.152;2023-06-22T02:56:28;18.53;90.29
65972;SHT31;52726;48.852;9.152;2023-06-22T02:58:53;18.53;90.00
65972;SHT31;52726;48.852;9.152;2023-06-22T03:01:19;18.50;89.62
65972;SHT31;52726;48.852;9.152;2023-06-22T03:03:49;18.46;90.04
65972;SHT31;52726;48.852;9.152;2023-06-22T03:06:14;18.43;90.37
65972;SHT31;52726;48.852;9.152;2023-06-22T03:08:39;18.43;90.02
65972;SHT31;52726;48.852;9.152;2023-06-22T03:11:06;18.42;90.20
65972;SHT31;52726;48.852;9.152;2023-06-22T03:13:32;18.36;90.41
65972;SHT31;52726;48.852;9.152;2023-06-22T03:15:58;18.33;90.67
65972;SHT31;52726;48.852;9.152;2023-06-22T03:18:23;18.30;90.69
65972;SHT31;52726;48.852;9.152;2023-06-22T03:20:48;18.30;90.26
65972;SHT31;52726;48.852;9.152;2023-06-22T03:23:14;18.29;89.99
65972;SHT31;52726;48.852;9.152;2023-06-22T03:25:40;18.28;90.45
65972;SHT31;52726;48.852;9.152;2023-06-22T03:28:05;18.28;90.78
65972;SHT31;52726;48.852;9.152;2023-06-22T03:30:31;18.24;91.27
65972;SHT31;52726;48.852;9.152;2023-06-22T03:32:56;18.25;91.47
65972;SHT31;52726;48.852;9.152;2023-06-22T03:35:21;18.24;90.99
65972;SHT31;52726;48.852;9.152;2023-06-22T03:37:47;18.21;90.98
65972;SHT31;52726;48.852;9.152;2023-06-22T03:40:12;18.22;91.28
65972;SHT31;52726;48.852;9.152;2023-06-22T03:42:37;18.26;91.39
65972;SHT31;52726;48.852;9.152;2023-06-22T03:45:41;18.30;90.98
65972;SHT31;52726;48.852;9.152;2023-06-22T03:55:34;18.50;90.43
65972;SHT31;52726;48.852;9.152;2023-06-22T04:03:46;18.64;89.93
65972;SHT31;52726;48.852;9.152;2023-06-22T04:06:14;18.68;89.90
65972;SHT31;52726;48.852;9.152;2023-06-22T04:08:39;18.71;89.96
65972;SHT31;52726;48.852;9.152;2023-06-22T04:11:06;18.78;89.64
65972;SHT31;52726;48.852;9.152;2023-06-22T04:13:31;18.80;89.61
65972;SHT31;52726;48.852;9.152;2023-06-22T04:15:56;18.86;89.42
65972;SHT31;52726;48.852;9.152;2023-06-22T04:18:21;18.88;89.63
65972;SHT31;52726;48.852;9.152;2023-06-22T04:20:47;19.00;88.93
65972;SHT31;52726;48.852;9.152;2023-06-22T04:23:13;19.15;87.85
65972;SHT31;52726;48.852;9.152;2023-06-22T04:25:39;19.19;87.76
65972;SHT31;52726;48.852;9.152;2023-06-22T04:28:04;19.21;87.89
65972;SHT31;52726;48.852;9.152;2023-06-22T04:30:30;19.22;87.93
65972;SHT31;52726;48.852;9.152;2023-06-22T04:32:56;19.26;88.06
65972;SHT31;52726;48.852;9.152;2023-06-22T04:35:23;19.29;87.68
65972;SHT31;52726;48.852;9.152;2023-06-22T04:37:49;19.43;87.34
65972;SHT31;52726;48.852;9.152;2023-06-22T04:40:15;19.46;87.27
65972;SHT31;52726;48.852;9.152;2023-06-22T04:42:40;19.51;86.79
65972;SHT31;52726;48.852;9.152;2023-06-22T04:45:17;19.61;86.67
65972;SHT31;52726;48.852;9.152;2023-06-22T04:47:43;19.63;86.27
65972;SHT31;52726;48.852;9.152;2023-06-22T04:50:11;19.66;86.59
65972;SHT31;52726;48.852;9.152;2023-06-22T04:52:37;19.65;86.78
65972;SHT31;52726;48.852;9.152;2023-06-22T04:55:03;19.66;86.46
65972;SHT31;52726;48.852;9.152;2023-06-22T04:57:29;19.76;86.26
65972;SHT31;52726;48.852;9.152;2023-06-22T05:00:00;19.90;85.02
65972;SHT31;52726;48.852;9.152;2023-06-22T05:02:52;20.00;85.58
65972;SHT31;52726;48.852;9.152;2023-06-22T05:05:17;20.07;84.84
65972;SHT31;52726;48.852;9.152;2023-06-22T05:07:44;20.11;85.27
65972;SHT31;52726;48.852;9.152;2023-06-22T05:10:11;20.14;85.06
65972;SHT31;52726;48.852;9.152;2023-06-22T05:12:38;20.20;84.91
65972;SHT31;52726;48.852;9.152;2023-06-22T05:15:04;20.24;84.18
65972;SHT31;52726;48.852;9.152;2023-06-22T05:17:30;20.28;84.46
65972;SHT31;52726;48.852;9.152;2023-06-22T05:19:55;20.31;83.75
65972;SHT31;52726;48.852;9.152;2023-06-22T05:22:21;20.41;83.65
65972;SHT31;52726;48.852;9.152;2023-06-22T05:24:46;20.44;82.80
65972;SHT31;52726;48.852;9.152;2023-06-22T05:33:00;20.68;82.95
65972;SHT31;52726;48.852;9.152;2023-06-22T05:42:07;20.97;82.26
65972;SHT31;52726;48.852;9.152;2023-06-22T05:45:00;21.10;81.48
65972;SHT31;52726;48.852;9.152;2023-06-22T05:47:50;21.20;80.80
65972;SHT31;52726;48.852;9.152;2023-06-22T05:50:45;21.26;81.34
65972;SHT31;52726;48.852;9.152;2023-06-22T05:56:36;21.33;80.32
65972;SHT31;52726;48.852;9.152;2023-06-22T05:59:02;21.35;80.53
65972;SHT31;52726;48.852;9.152;2023-06-22T06:01:35;21.41;79.96
65972;SHT31;52726;48.852;9.152;2023-06-22T06:04:16;21.45;80.23
65972;SHT31;52726;48.852;9.152;2023-06-22T06:06:44;21.51;79.93
65972;SHT31;52726;48.852;9.152;2023-06-22T06:09:21;21.59;80.79
65972;SHT31;52726;48.852;9.152;2023-06-22T06:11:59;21.65;79.91
65972;SHT31;52726;48.852;9.152;2023-06-22T06:14:28;21.78;78.69
65972;SHT31;52726;48.852;9.152;2023-06-22T06:17:06;21.72;78.82
65972;SHT31;52726;48.852;9.152;2023-06-22T06:19:39;21.86;78.43
65972;SHT31;52726;48.852;9.152;2023-06-22T06:22:28;22.05;78.49
65972;SHT31;52726;48.852;9.152;2023-06-22T06:25:22;22.37;77.80
65972;SHT31;52726;48.852;9.152;2023-06-22T06:27:50;22.55;76.19
65972;SHT31;52726;48.852;9.152;2023-06-22T06:30:58;22.75;76.26
65972;SHT31;52726;48.852;9.152;2023-06-22T06:33:54;23.15;75.16
65972;SHT31;52726;48.852;9.152;2023-06-22T06:36:31;23.73;73.84
65972;SHT31;52726;48.852;9.152;2023-06-22T06:39:48;24.67;69.46
65972;SHT31;52726;48.852;9.152;2023-06-22T06:43:03;25.21;68.66
65972;SHT31;52726;48.852;9.152;2023-06-22T06:49:07;26.20;67.45
65972;SHT31;52726;48.852;9.152;2023-06-22T06:56:01;26.99;61.61
65972;SHT31;52726;48.852;9.152;2023-06-22T07:05:58;27.43;62.03
65972;SHT31;52726;48.852;9.152;2023-06-22T07:08:52;27.50;61.29
65972;SHT31;52726;48.852;9.152;2023-06-22T07:12:01;27.84;62.08
65972;SHT31;52726;48.852;9.152;2023-06-22T07:18:08;28.26;59.76
65972;SHT31;52726;48.852;9.152;2023-06-22T07:20:42;28.30;59.52
65972;SHT31;52726;48.852;9.152;2023-06-22T07:23:08;28.36;59.37
65972;SHT31;52726;48.852;9.152;2023-06-22T07:25:39;28.36;60.35
65972;SHT31;52726;48.852;9.152;2023-06-22T07:28:29;28.57;59.22
65972;SHT31;52726;48.852;9.152;2023-06-22T07:31:11;28.68;57.38
65972;SHT31;52726;48.852;9.152;2023-06-22T07:34:03;28.74;57.80
65972;SHT31;52726;48.852;9.152;2023-06-22T07:36:29;28.41;57.85
65972;SHT31;52726;48.852;9.152;2023-06-22T07:38:59;28.63;57.73
65972;SHT31;52726;48.852;9.152;2023-06-22T07:41:53;28.33;57.51
65972;SHT31;52726;48.852;9.152;2023-06-22T07:44:29;28.06;57.80
65972;SHT31;52726;48.852;9.152;2023-06-22T07:47:05;28.19;57.85
65972;SHT31;52726;48.852;9.152;2023-06-22T07:49:58;28.68;58.48
65972;SHT31;52726;48.852;9.152;2023-06-22T07:53:07;28.79;58.91
65972;SHT31;52726;48.852;9.152;2023-06-22T07:55:36;28.92;56.82
65972;SHT31;52726;48.852;9.152;2023-06-22T08:01:35;28.70;55.79
65972;SHT31;52726;48.852;9.152;2023-06-22T08:04:03;28.51;55.66
65972;SHT31;52726;48.852;9.152;2023-06-22T08:06:31;28.54;56.32
65972;SHT31;52726;48.852;9.152;2023-06-22T08:09:14;29.02;57.04
65972;SHT31;52726;48.852;9.152;2023-06-22T08:11:40;29.57;57.44
65972;SHT31;52726;48.852;9.152;2023-06-22T08:14:17;29.90;54.57
65972;SHT31;52726;48.852;9.152;2023-06-22T08:17:07;30.07;53.01
65972;SHT31;52726;48.852;9.152;2023-06-22T08:19:40;30.32;54.07
65972;SHT31;52726;48.852;9.152;2023-06-22T08:22:15;30.53;52.52
65972;SHT31;52726;48.852;9.152;2023-06-22T08:28:16;30.01;53.09
65972;SHT31;52726;48.852;9.152;2023-06-22T08:31:02;29.56;55.70
65972;SHT31;52726;48.852;9.152;2023-06-22T08:41:00;28.75;57.23
65972;SHT31;52726;48.852;9.152;2023-06-22T08:43:44;28.43;58.69
65972;SHT31;52726;48.852;9.152;2023-06-22T08:46:33;28.26;58.57
65972;SHT31;52726;48.852;9.152;2023-06-22T08:49:07;28.14;59.29
65972;SHT31;52726;48.852;9.152;2023-06-22T08:51:36;28.26;58.43
65972;SHT31;52726;48.852;9.152;2023-06-22T08:54:15;28.29;59.11
65972;SHT31;52726;48.852;9.152;2023-06-22T08:56:43;28.22;57.77
65972;SHT31;52726;48.852;9.152;2023-06-22T08:59:09;28.99;58.53
65972;SHT31;52726;48.852;9.152;2023-06-22T09:01:35;29.42;56.27
65972;SHT31;52726;48.852;9.152;2023-06-22T09:04:05;29.39;56.95
65972;SHT31;52726;48.852;9.152;2023-06-22T09:06:42;29.77;55.95
65972;SHT31;52726;48.852;9.152;2023-06-22T09:09:23;30.35;56.03
65972;SHT31;52726;48.852;9.152;2023-06-22T09:15:19;29.87;54.16
65972;SHT31;52726;48.852;9.152;2023-06-22T09:17:48;29.29;56.23
65972;SHT31;52726;48.852;9.152;2023-06-22T09:20:23;29.47;56.71
65972;SHT31;52726;48.852;9.152;2023-06-22T09:23:02;29.59;55.78
65972;SHT31;52726;48.852;9.152;2023-06-22T09:25:36;30.02;56.39
65972;SHT31;52726;48.852;9.152;2023-06-22T09:28:37;30.39;56.82
65972;SHT31;52726;48.852;9.152;2023-06-22T09:31:13;30.56;52.94
65972;SHT31;52726;48.852;9.152;2023-06-22T09:33:45;30.87;52.90
65972;SHT31;52726;48.852;9.152;2023-06-22T09:36:23;30.40;53.36
65972;SHT31;52726;48.852;9.152;2023-06-22T09:46:17;31.41;53.15
65972;SHT31;52726;48.852;9.152;2023-06-22T09:49:14;31.48;51.79
65972;SHT31;52726;48.852;9.152;2023-06-22T09:52:29;32.06;53.93
65972;SHT31;52726;48.852;9.152;2023-06-22T10:01:30;31.89;49.22
65972;SHT31;52726;48.852;9.152;2023-06-22T10:04:05;32.19;50.47
65972;SHT31;52726;48.852;9.152;2023-06-22T10:07:03;32.53;49.30
65972;SHT31;52726;48.852;9.152;2023-06-22T10:09:38;31.83;48.86
65972;SHT31;52726;48.852;9.152;2023-06-22T10:12:12;31.58;50.00
65972;SHT31;52726;48.852;9.152;2023-06-22T10:14:48;31.27;51.67
65972;SHT31;52726;48.852;9.152;2023-06-22T10:17:17;31.04;53.10
65972;SHT31;52726;48.852;9.152;2023-06-22T10:19:47;30.86;53.32
65972;SHT31;52726;48.852;9.152;2023-06-22T10:22:16;31.15;50.44
65972;SHT31;52726;48.852;9.152;2023-06-22T10:24:49;31.10;51.37
65972;SHT31;52726;48.852;9.152;2023-06-22T10:27:15;31.11;51.46
65972;SHT31;52726;48.852;9.152;2023-06-22T10:29:41;31.21;49.60
65972;SHT31;52726;48.852;9.152;2023-06-22T10:32:32;31.08;50.28
65972;SHT31;52726;48.852;9.152;2023-06-22T10:35:01;30.98;50.77
65972;SHT31;52726;48.852;9.152;2023-06-22T10:37:27;31.39;51.14
65972;SHT31;52726;48.852;9.152;2023-06-22T10:39:55;31.66;52.08
65972;SHT31;52726;48.852;9.152;2023-06-22T10:42:26;31.73;49.59
65972;SHT31;52726;48.852;9.152;2023-06-22T10:44:54;31.31;50.68
65972;SHT31;52726;48.852;9.152;2023-06-22T10:47:22;31.68;49.65
65972;SHT31;52726;48.852;9.152;2023-06-22T10:49:56;31.59;50.57
65972;SHT31;52726;48.852;9.152;2023-06-22T10:52:32;31.75;48.64
65972;SHT31;52726;48.852;9.152;2023-06-22T10:55:09;31.66;49.63
65972;SHT31;52726;48.852;9.152;2023-06-22T10:57:38;31.43;49.30
65972;SHT31;52726;48.852;9.152;2023-06-22T11:00:09;31.46;54.32
65972;SHT31;52726;48.852;9.152;2023-06-22T11:02:46;31.58;49.67
65972;SHT31;52726;48.852;9.152;2023-06-22T11:05:18;31.65;48.85
65972;SHT31;52726;48.852;9.152;2023-06-22T11:07:46;31.51;48.87
65972;SHT31;52726;48.852;9.152;2023-06-22T11:10:17;31.63;49.57
65972;SHT31;52726;48.852;9.152;2023-06-22T11:12:50;31.57;50.30
65972;SHT31;52726;48.852;9.152;2023-06-22T11:15:21;31.32;49.10
65972;SHT31;52726;48.852;9.152;2023-06-22T11:17:53;31.25;49.81
65972;SHT31;52726;48.852;9.152;2023-06-22T11:20:48;31.42;50.87
65972;SHT31;52726;48.852;9.152;2023-06-22T11:26:34;31.52;49.14
65972;SHT31;52726;48.852;9.152;2023-06-22T11:29:02;31.31;49.27
65972;SHT31;52726;48.852;9.152;2023-06-22T11:31:34;31.20;50.76
65972;SHT31;52726;48.852;9.152;2023-06-22T11:33:59;31.08;51.09
65972;SHT31;52726;48.852;9.152;2023-06-22T11:36:25;30.94;52.85
65972;SHT31;52726;48.852;9.152;2023-06-22T11:38:51;30.88;55.54
65972;SHT31;52726;48.852;9.152;2023-06-22T11:41:16;30.80;50.97
65972;SHT31;52726;48.852;9.152;2023-06-22T11:43:42;30.91;49.61
65972;SHT31;52726;48.852;9.152;2023-06-22T11:46:07;31.06;51.64
65972;SHT31;52726;48.852;9.152;2023-06-22T11:48:33;31.01;49.82
65972;SHT31;52726;48.852;9.152;2023-06-22T11:51:04;30.87;49.97
65972;SHT31;52726;48.852;9.152;2023-06-22T11:53:31;30.96;52.35
65972;SHT31;52726;48.852;9.152;2023-06-22T11:56:00;31.01;53.32
65972;SHT31;52726;48.852;9.152;2023-06-22T11:58:26;30.97;51.66
65972;SHT31;52726;48.852;9.152;2023-06-22T12:00:52;31.01;52.64
65972;SHT31;52726;48.852;9.152;2023-06-22T12:03:18;30.94;53.28
65972;SHT31;52726;48.852;9.152;2023-06-22T12:05:44;31.00;53.72
65972;SHT31;52726;48.852;9.152;2023-06-22T12:08:12;31.00;54.40
65972;SHT31;52726;48.852;9.152;2023-06-22T12:10:39;30.84;53.48
65972;SHT31;52726;48.852;9.152;2023-06-22T12:13:06;30.73;52.17
65972;SHT31;52726;48.852;9.152;2023-06-22T12:15:32;30.76;54.82
65972;SHT31;52726;48.852;9.152;2023-06-22T12:17:57;30.79;53.66
65972;SHT31;52726;48.852;9.152;2023-06-22T12:20:23;30.79;57.19
65972;SHT31;52726;48.852;9.152;2023-06-22T12:22:48;30.70;54.44
65972;SHT31;52726;48.852;9.152;2023-06-22T12:25:16;30.82;52.20
65972;SHT31;52726;48.852;9.152;2023-06-22T12:27:42;30.80;54.50
65972;SHT31;52726;48.852;9.152;2023-06-22T12:30:08;30.72;55.92
65972;SHT31;52726;48.852;9.152;2023-06-22T12:32:34;30.82;54.26
65972;SHT31;52726;48.852;9.152;2023-06-22T12:34:59;30.77;53.90
65972;SHT31;52726;48.852;9.152;2023-06-22T12:37:25;30.82;52.08
65972;SHT31;52726;48.852;9.152;2023-06-22T12:39:50;30.86;53.27
65972;SHT31;52726;48.852;9.152;2023-06-22T12:42:16;30.82;53.25
65972;SHT31;52726;48.852;9.152;2023-06-22T12:44:42;30.69;53.01
65972;SHT31;52726;48.852;9.152;2023-06-22T12:47:07;30.65;51.79
65972;SHT31;52726;48.852;9.152;2023-06-22T12:49:36;30.70;51.00
65972;SHT31;52726;48.852;9.152;2023-06-22T12:52:03;30.80;51.09
65972;SHT31;52726;48.852;9.152;2023-06-22T12:54:29;30.88;51.69
65972;SHT31;52726;48.852;9.152;2023-06-22T12:56:57;30.84;54.28
65972;SHT31;52726;48.852;9.152;2023-06-22T12:59:23;30.69;51.98
65972;SHT31;52726;48.852;9.152;2023-06-22T13:01:48;30.59;51.82
65972;SHT31;52726;48.852;9.152;2023-06-22T13:04:13;30.62;53.74
65972;SHT31;52726;48.852;9.152;2023-06-22T13:06:44;30.49;54.36
65972;SHT31;52726;48.852;9.152;2023-06-22T13:09:12;30.49;54.21
65972;SHT31;52726;48.852;9.152;2023-06-22T13:11:37;30.51;53.53
65972;SHT31;52726;48.852;9.152;2023-06-22T13:14:03;30.51;53.66
65972;SHT31;52726;48.852;9.152;2023-06-22T13:16:28;30.51;53.71
65972;SHT31;52726;48.852;9.152;2023-06-22T13:18:54;30.42;55.33
65972;SHT31;52726;48.852;9.152;2023-06-22T13:21:19;30.38;56.25
65972;SHT31;52726;48.852;9.152;2023-06-22T13:23:44;30.35;54.20
65972;SHT31;52726;48.852;9.152;2023-06-22T13:26:10;30.42;56.13
65972;SHT31;52726;48.852;9.152;2023-06-22T13:28:35;30.45;54.97
65972;SHT31;52726;48.852;9.152;2023-06-22T13:31:01;30.66;55.47
65972;SHT31;52726;48.852;9.152;2023-06-22T13:33:26;30.79;56.30
65972;SHT31;52726;48.852;9.152;2023-06-22T13:35:51;30.94;53.48
65972;SHT31;52726;48.852;9.152;2023-06-22T13:38:17;31.01;55.87
65972;SHT31;52726;48.852;9.152;2023-06-22T13:40:42;31.08;54.13
65972;SHT31;52726;48.852;9.152;2023-06-22T13:43:08;31.27;53.82
65972;SHT31;52726;48.852;9.152;2023-06-22T13:45:33;31.24;53.23
65972;SHT31;52726;48.852;9.152;2023-06-22T13:47:59;31.32;54.18
65972;SHT31;52726;48.852;9.152;2023-06-22T13:50:29;31.45;52.47
65972;SHT31;52726;48.852;9.152;2023-06-22T13:52:55;31.49;52.84
65972;SHT31;52726;48.852;9.152;2023-06-22T13:55:21;31.51;57.31
65972;SHT31;52726;48.852;9.152;2023-06-22T13:57:47;31.46;55.18
65972;SHT31;52726;48.852;9.152;2023-06-22T14:00:16;31.46;53.64
65972;SHT31;52726;48.852;9.152;2023-06-22T14:02:44;31.45;53.57
65972;SHT31;52726;48.852;9.152;2023-06-22T14:05:10;31.45;52.65
65972;SHT31;52726;48.852;9.152;2023-06-22T14:08:08;31.32;53.03
65972;SHT31;52726;48.852;9.152;2023-06-22T14:10:37;31.38;53.21
65972;SHT31;52726;48.852;9.152;2023-06-22T14:13:03;31.46;55.07
65972;SHT31;52726;48.852;9.152;2023-06-22T14:15:31;31.43;55.07
65972;SHT31;52726;48.852;9.152;2023-06-22T14:17:56;31.43;53.13
65972;SHT31;52726;48.852;9.152;2023-06-22T14:23:13;31.55;53.94
65972;SHT31;52726;48.852;9.152;2023-06-22T14:25:39;31.72;52.92
65972;SHT31;52726;48.852;9.152;2023-06-22T14:28:04;31.69;52.45
65972;SHT31;52726;48.852;9.152;2023-06-22T14:30:53;31.62;53.29
65972;SHT31;52726;48.852;9.152;2023-06-22T14:33:18;31.63;53.02
65972;SHT31;52726;48.852;9.152;2023-06-22T14:35:44;31.58;52.53
65972;SHT31;52726;48.852;9.152;2023-06-22T14:38:09;31.65;53.22
65972;SHT31;52726;48.852;9.152;2023-06-22T14:40:37;31.73;51.52
65972;SHT31;52726;48.852;9.152;2023-06-22T14:43:02;31.73;49.50
65972;SHT31;52726;48.852;9.152;2023-06-22T14:45:28;31.82;51.62
65972;SHT31;52726;48.852;9.152;2023-06-22T14:47:53;31.90;50.13
65972;SHT31;52726;48.852;9.152;2023-06-22T14:50:19;32.03;50.89
65972;SHT31;52726;48.852;9.152;2023-06-22T14:52:44;32.24;49.10
65972;SHT31;52726;48.852;9.152;2023-06-22T14:55:44;32.47;50.99
65972;SHT31;52726;48.852;9.152;2023-06-22T14:58:10;32.53;45.61
65972;SHT31;52726;48.852;9.152;2023-06-22T15:01:02;32.57;40.06
65972;SHT31;52726;48.852;9.152;2023-06-22T15:03:39;32.51;38.68
65972;SHT31;52726;48.852;9.152;2023-06-22T15:06:13;32.50;37.27
65972;SHT31;52726;48.852;9.152;2023-06-22T15:08:41;32.55;37.75
65972;SHT31;52726;48.852;9.152;2023-06-22T15:11:27;32.64;37.12
65972;SHT31;52726;48.852;9.152;2023-06-22T15:13:52;32.62;38.24
65972;SHT31;52726;48.852;9.152;2023-06-22T15:16:18;32.72;37.78
65972;SHT31;52726;48.852;9.152;2023-06-22T15:18:43;32.64;36.83
65972;SHT31;52726;48.852;9.152;2023-06-22T15:21:10;32.79;36.88
65972;SHT31;52726;48.852;9.152;2023-06-22T15:23:36;32.81;36.74
65972;SHT31;52726;48.852;9.152;2023-06-22T15:26:02;32.55;37.68
65972;SHT31;52726;48.852;9.152;2023-06-22T15:28:30;32.64;37.97
65972;SHT31;52726;48.852;9.152;2023-06-22T15:30:57;32.51;38.19
65972;SHT31;52726;48.852;9.152;2023-06-22T15:33:24;32.62;40.16
65972;SHT31;52726;48.852;9.152;2023-06-22T15:35:49;32.75;37.87
65972;SHT31;52726;48.852;9.152;2023-06-22T15:38:15;32.70;37.41
65972;SHT31;52726;48.852;9.152;2023-06-22T15:40:43;32.74;37.50
65972;SHT31;52726;48.852;9.152;2023-06-22T15:43:12;32.37;37.19
65972;SHT31;52726;48.852;9.152;2023-06-22T15:45:45;32.00;39.30
65972;SHT31;52726;48.852;9.152;2023-06-22T15:48:10;31.85;37.61
65972;SHT31;52726;48.852;9.152;2023-06-22T15:50:35;31.79;38.24
65972;SHT31;52726;48.852;9.152;2023-06-22T15:53:01;31.75;38.57
65972;SHT31;52726;48.852;9.152;2023-06-22T15:55:26;31.72;40.69
65972;SHT31;52726;48.852;9.152;2023-06-22T15:57:52;31.55;38.65
65972;SHT31;52726;48.852;9.152;2023-06-22T16:00:18;31.51;39.66
65972;SHT31;52726;48.852;9.152;2023-06-22T16:02:44;31.46;39.59
65972;SHT31;52726;48.852;9.152;2023-06-22T16:05:13;31.28;39.48
65972;SHT31;52726;48.852;9.152;2023-06-22T16:07:39;31.10;40.35
65972;SHT31;52726;48.852;9.152;2023-06-22T16:10:05;31.06;40.53
65972;SHT31;52726;48.852;9.152;2023-06-22T16:12:34;30.93;40.91
65972;SHT31;52726;48.852;9.152;2023-06-22T16:14:59;30.88;40.51
65972;SHT31;52726;48.852;9.152;2023-06-22T16:17:25;30.87;41.67
65972;SHT31;52726;48.852;9.152;2023-06-22T16:19:52;30.77;42.27
65972;SHT31;52726;48.852;9.152;2023-06-22T16:22:22;30.75;42.84
65972;SHT31;52726;48.852;9.152;2023-06-22T16:24:48;30.63;42.56
65972;SHT31;52726;48.852;9.152;2023-06-22T16:27:13;30.59;42.92
65972;SHT31;52726;48.852;9.152;2023-06-22T16:29:39;30.60;42.55
65972;SHT31;52726;48.852;9.152;2023-06-22T16:32:06;30.52;43.13
65972;SHT31;52726;48.852;9.152;2023-06-22T16:34:32;30.49;42.16
65972;SHT31;52726;48.852;9.152;2023-06-22T16:36:57;30.52;41.76
65972;SHT31;52726;48.852;9.152;2023-06-22T16:39:22;30.51;42.26
65972;SHT31;52726;48.852;9.152;2023-06-22T16:41:48;30.38;41.43
65972;SHT31;52726;48.852;9.152;2023-06-22T16:44:15;30.33;41.60
65972;SHT31;52726;48.852;9.152;2023-06-22T16:46:40;30.31;42.08
65972;SHT31;52726;48.852;9.152;2023-06-22T16:49:06;30.33;42.14
65972;SHT31;52726;48.852;9.152;2023-06-22T16:51:31;30.40;41.33
65972;SHT31;52726;48.852;9.152;2023-06-22T16:53:56;30.52;42.24
65972;SHT31;52726;48.852;9.152;2023-06-22T16:56:26;30.67;42.05
65972;SHT31;52726;48.852;9.152;2023-06-22T16:58:56;30.66;42.14
65972;SHT31;52726;48.852;9.152;2023-06-22T17:01:23;30.57;43.58
65972;SHT31;52726;48.852;9.152;2023-06-22T17:04:15;30.56;44.60
65972;SHT31;52726;48.852;9.152;2023-06-22T17:06:42;30.04;41.83
65972;SHT31;52726;48.852;9.152;2023-06-22T17:09:12;29.78;42.56
65972;SHT31;52726;48.852;9.152;2023-06-22T17:11:38;29.67;43.15
65972;SHT31;52726;48.852;9.152;2023-06-22T17:14:05;29.50;44.16
65972;SHT31;52726;48.852;9.152;2023-06-22T17:16:31;29.30;44.07
65972;SHT31;52726;48.852;9.152;2023-06-22T17:18:58;29.16;44.40
65972;SHT31;52726;48.852;9.152;2023-06-22T17:21:28;29.02;45.13